sensor_id;sensor_type;location;lat;lon;timestamp;temperature;humidity
16038;DHT22;8123;50.906;6.172;2023-02-23T00:01:43;9.50;99.90
16038;DHT22;8123;50.906;6.172;2023-02-23T00:04:09;9.60;99.90
16038;DHT22;8123;50.906;6.172;2023-02-23T00:06:35;9.50;99.90
16038;DHT22;8123;50.906;6.172;2023-02-23T00:09:02;9.40;99.90
16038;DHT22;8123;50.906;6.172;2023-02-23T00:11:35;9.50;99.90
16038;DHT22;8123;50.906;6.172;2023-02-23T00:14:00;9.50;99.90
16038;DHT22;8123;50.906;6.172;2023-02-23T00:16:27;9.40;99.90
16038;DHT22;8123;50.906;6.172;2023-02-23T00:18:55;9.50;99.90
16038;DHT22;8123;50.906;6.172;2023-02-23T00:21:27;9.70;99.90
16038;DHT22;8123;50.906;6.172;2023-02-23T00:23:56;9.60;99.90
16038;DHT22;8123;50.906;6.172;2023-02-23T00:26:24;9.40;99.90
16038;DHT22;8123;50.906;6.172;2023-02-23T00:28:52;9.40;99.90
16038;DHT22;8123;50.906;6.172;2023-02-23T00:31:19;9.50;99.90
16038;DHT22;8123;50.906;6.172;2023-02-23T00:33:52;9.70;99.90
16038;DHT22;8123;50.906;6.172;2023-02-23T00:36:20;9.30;99.90
16038;DHT22;8123;50.906;6.172;2023-02-23T00:38:46;9.60;99.90
16038;DHT22;8123;50.906;6.172;2023-02-23T00:41:14;9.50;99.90
16038;DHT22;8123;50.906;6.172;2023-02-23T00:43:46;9.50;99.90
16038;DHT22;8123;50.906;6.172;2023-02-23T00:46:17;9.30;99.90
16038;DHT22;8123;50.906;6.172;2023-02-23T00:48:46;9.30;99.90
16038;DHT22;8123;50.906;6.172;2023-02-23T00:51:13;9.30;99.90
16038;DHT22;8123;50.906;6.172;2023-02-23T00:53:39;9.60;99.90
16038;DHT22;8123;50.906;6.172;2023-02-23T00:56:06;9.30;99.90
16038;DHT22;8123;50.906;6.172;2023-02-23T00:58:32;9.30;99.90
16038;DHT22;8123;50.906;6.172;2023-02-23T01:00:58;9.40;99.90
16038;DHT22;8123;50.906;6.172;2023-02-23T01:03:28;9.30;99.90
16038;DHT22;8123;50.906;6.172;2023-02-23T01:05:59;9.20;99.90
16038;DHT22;8123;50.906;6.172;2023-02-23T01:08:25;9.20;99.90
16038;DHT22;8123;50.906;6.172;2023-02-23T01:10:52;9.20;99.90
16038;DHT22;8123;50.906;6.172;2023-02-23T01:13:19;9.30;99.90
16038;DHT22;8123;50.906;6.172;2023-02-23T01:15:46;9.50;99.90
16038;DHT22;8123;50.906;6.172;2023-02-23T01:18:15;9.30;99.90
16038;DHT22;8123;50.906;6.172;2023-02-23T01:20:42;9.20;99.90
16038;DHT22;8123;50.906;6.172;2023-02-23T01:23:10;9.60;99.90
16038;DHT22;8123;50.906;6.172;2023-02-23T01:25:37;9.30;99.90
16038;DHT22;8123;50.906;6.172;2023-02-23T01:28:03;9.20;99.90
16038;DHT22;8123;50.906;6.172;2023-02-23T01:30:29;9.20;99.90
16038;DHT22;8123;50.906;6.172;2023-02-23T01:32:55;9.20;99.90
16038;DHT22;8123;50.906;6.172;2023-02-23T01:35:21;9.20;99.90
16038;DHT22;8123;50.906;6.172;2023-02-23T01:37:47;9.30;99.90
16038;DHT22;8123;50.906;6.172;2023-02-23T01:40:24;9.20;99.90
16038;DHT22;8123;50.906;6.172;2023-02-23T01:42:58;9.30;99.90
16038;DHT22;8123;50.906;6.172;2023-02-23T01:45:34;9.10;99.90
16038;DHT22;8123;50.906;6.172;2023-02-23T01:48:10;9.50;99.90
16038;DHT22;8123;50.906;6.172;2023-02-23T01:51:01;9.10;99.90
16038;DHT22;8123;50.906;6.172;2023-02-23T01:53:30;9.00;99.90
16038;DHT22;8123;50.906;6.172;2023-02-23T01:56:05;9.00;99.90
16038;DHT22;8123;50.906;6.172;2023-02-23T01:58:40;8.90;99.90
16038;DHT22;8123;50.906;6.172;2023-02-23T02:01:06;9.30;99.90
16038;DHT22;8123;50.906;6.172;2023-02-23T02:03:39;9.00;99.90
16038;DHT22;8123;50.906;6.172;2023-02-23T02:06:07;9.00;99.90
16038;DHT22;8123;50.906;6.172;2023-02-23T02:08:35;9.10;99.90
16038;DHT22;8123;50.906;6.172;2023-02-23T02:11:13;9.20;99.90
16038;DHT22;8123;50.906;6.172;2023-02-23T02:14:02;9.00;99.90
16038;DHT22;8123;50.906;6.172;2023-02-23T02:33:20;8.90;99.90
16038;DHT22;8123;50.906;6.172;2023-02-23T02:36:16;8.90;99.90
16038;DHT22;8123;50.906;6.172;2023-02-23T02:39:10;8.90;99.90
16038;DHT22;8123;50.906;6.172;2023-02-23T02:42:00;8.90;99.90
16038;DHT22;8123;50.906;6.172;2023-02-23T02:47:21;8.90;99.90
16038;DHT22;8123;50.906;6.172;2023-02-23T02:49:53;8.90;99.90
16038;DHT22;8123;50.906;6.172;2023-02-23T02:52:30;8.80;99.90
16038;DHT22;8123;50.906;6.172;2023-02-23T02:55:07;8.90;99.90
16038;DHT22;8123;50.906;6.172;2023-02-23T02:57:37;9.10;99.90
16038;DHT22;8123;50.906;6.172;2023-02-23T03:00:03;8.80;99.90
16038;DHT22;8123;50.906;6.172;2023-02-23T03:02:48;8.70;99.90
16038;DHT22;8123;50.906;6.172;2023-02-23T03:05:48;8.80;99.90
16038;DHT22;8123;50.906;6.172;2023-02-23T03:08:40;9.10;99.90
16038;DHT22;8123;50.906;6.172;2023-02-23T03:11:37;9.10;99.90
16038;DHT22;8123;50.906;6.172;2023-02-23T03:14:45;8.80;99.90
16038;DHT22;8123;50.906;6.172;2023-02-23T03:17:44;8.80;99.90
16038;DHT22;8123;50.906;6.172;2023-02-23T03:20:40;8.80;99.90
16038;DHT22;8123;50.906;6.172;2023-02-23T03:23:47;8.80;99.90
16038;DHT22;8123;50.906;6.172;2023-02-23T03:26:43;8.80;99.90
16038;DHT22;8123;50.906;6.172;2023-02-23T03:35:14;8.80;99.90
16038;DHT22;8123;50.906;6.172;2023-02-23T03:38:29;9.00;99.90
16038;DHT22;8123;50.906;6.172;2023-02-23T03:41:19;8.80;99.90
16038;DHT22;8123;50.906;6.172;2023-02-23T03:44:10;8.80;99.90
16038;DHT22;8123;50.906;6.172;2023-02-23T03:46:56;8.70;99.90
16038;DHT22;8123;50.906;6.172;2023-02-23T03:49:42;8.80;99.90
16038;DHT22;8123;50.906;6.172;2023-02-23T03:52:40;9.00;99.90
16038;DHT22;8123;50.906;6.172;2023-02-23T03:55:31;9.10;99.90
16038;DHT22;8123;50.906;6.172;2023-02-23T03:58:21;8.70;99.90
16038;DHT22;8123;50.906;6.172;2023-02-23T04:01:08;9.00;99.90
16038;DHT22;8123;50.906;6.172;2023-02-23T04:03:55;9.00;99.90
16038;DHT22;8123;50.906;6.172;2023-02-23T04:06:43;8.90;99.90
16038;DHT22;8123;50.906;6.172;2023-02-23T04:09:29;8.80;99.90
16038;DHT22;8123;50.906;6.172;2023-02-23T04:12:25;8.80;99.90
16038;DHT22;8123;50.906;6.172;2023-02-23T04:15:55;8.80;99.90
16038;DHT22;8123;50.906;6.172;2023-02-23T04:18:05;8.70;99.90
16038;DHT22;8123;50.906;6.172;2023-02-23T04:20:32;8.80;99.90
16038;DHT22;8123;50.906;6.172;2023-02-23T04:22:58;8.80;99.90
16038;DHT22;8123;50.906;6.172;2023-02-23T04:25:23;8.70;99.90
16038;DHT22;8123;50.906;6.172;2023-02-23T04:27:49;9.00;99.90
16038;DHT22;8123;50.906;6.172;2023-02-23T04:30:15;9.00;99.90
16038;DHT22;8123;50.906;6.172;2023-02-23T04:32:41;8.80;99.90
16038;DHT22;8123;50.906;6.172;2023-02-23T04:35:08;9.20;99.90
16038;DHT22;8123;50.906;6.172;2023-02-23T04:37:34;8.80;99.90
16038;DHT22;8123;50.906;6.172;2023-02-23T04:40:00;8.80;99.90
16038;DHT22;8123;50.906;6.172;2023-02-23T04:42:25;9.00;99.90
16038;DHT22;8123;50.906;6.172;2023-02-23T04:44:51;8.80;99.90
16038;DHT22;8123;50.906;6.172;2023-02-23T04:47:17;8.90;99.90
16038;DHT22;8123;50.906;6.172;2023-02-23T04:49:43;8.80;99.90
16038;DHT22;8123;50.906;6.172;2023-02-23T04:52:08;8.90;99.90
16038;DHT22;8123;50.906;6.172;2023-02-23T04:54:38;9.00;99.90
16038;DHT22;8123;50.906;6.172;2023-02-23T04:57:04;8.80;99.90
16038;DHT22;8123;50.906;6.172;2023-02-23T04:59:30;8.80;99.90
16038;DHT22;8123;50.906;6.172;2023-02-23T05:01:55;9.10;99.90
16038;DHT22;8123;50.906;6.172;2023-02-23T05:04:21;8.80;99.90
16038;DHT22;8123;50.906;6.172;2023-02-23T05:06:47;8.80;99.90
16038;DHT22;8123;50.906;6.172;2023-02-23T05:09:13;8.90;99.90
16038;DHT22;8123;50.906;6.172;2023-02-23T05:11:39;8.80;99.90
16038;DHT22;8123;50.906;6.172;2023-02-23T05:14:04;8.70;99.90
16038;DHT22;8123;50.906;6.172;2023-02-23T05:16:30;9.00;99.90
16038;DHT22;8123;50.906;6.172;2023-02-23T05:18:56;9.00;99.90
16038;DHT22;8123;50.906;6.172;2023-02-23T05:21:22;8.70;99.90
16038;DHT22;8123;50.906;6.172;2023-02-23T05:23:49;8.70;99.90
16038;DHT22;8123;50.906;6.172;2023-02-23T05:26:15;8.70;99.90
16038;DHT22;8123;50.906;6.172;2023-02-23T05:28:41;8.70;99.90
16038;DHT22;8123;50.906;6.172;2023-02-23T05:31:08;8.70;99.90
16038;DHT22;8123;50.906;6.172;2023-02-23T05:33:34;8.70;99.90
16038;DHT22;8123;50.906;6.172;2023-02-23T05:36:08;8.80;99.90
16038;DHT22;8123;50.906;6.172;2023-02-23T05:38:34;8.70;99.90
16038;DHT22;8123;50.906;6.172;2023-02-23T05:41:04;8.80;99.90
16038;DHT22;8123;50.906;6.172;2023-02-23T05:43:29;9.00;99.90
16038;DHT22;8123;50.906;6.172;2023-02-23T05:45:55;8.70;99.90
16038;DHT22;8123;50.906;6.172;2023-02-23T05:48:21;8.90;99.90
16038;DHT22;8123;50.906;6.172;2023-02-23T05:50:47;9.00;99.90
16038;DHT22;8123;50.906;6.172;2023-02-23T05:53:13;8.80;99.90
16038;DHT22;8123;50.906;6.172;2023-02-23T05:55:39;8.80;99.90
16038;DHT22;8123;50.906;6.172;2023-02-23T05:58:05;8.70;99.90
16038;DHT22;8123;50.906;6.172;2023-02-23T06:00:31;8.80;99.90
16038;DHT22;8123;50.906;6.172;2023-02-23T06:02:56;8.70;99.90
16038;DHT22;8123;50.906;6.172;2023-02-23T06:05:22;8.80;99.90
16038;DHT22;8123;50.906;6.172;2023-02-23T06:07:47;8.70;99.90
16038;DHT22;8123;50.906;6.172;2023-02-23T06:10:13;8.70;99.90
16038;DHT22;8123;50.906;6.172;2023-02-23T06:12:39;8.70;99.90
16038;DHT22;8123;50.906;6.172;2023-02-23T06:15:05;9.00;99.90
16038;DHT22;8123;50.906;6.172;2023-02-23T06:17:30;8.70;99.90
16038;DHT22;8123;50.906;6.172;2023-02-23T06:19:56;9.00;99.90
16038;DHT22;8123;50.906;6.172;2023-02-23T06:22:24;9.00;99.90
16038;DHT22;8123;50.906;6.172;2023-02-23T06:24:49;8.90;99.90
16038;DHT22;8123;50.906;6.172;2023-02-23T06:27:15;8.70;99.90
16038;DHT22;8123;50.906;6.172;2023-02-23T06:29:40;8.80;99.90
16038;DHT22;8123;50.906;6.172;2023-02-23T06:32:06;8.70;99.90
16038;DHT22;8123;50.906;6.172;2023-02-23T06:34:32;8.70;99.90
16038;DHT22;8123;50.906;6.172;2023-02-23T06:36:58;8.70;99.90
16038;DHT22;8123;50.906;6.172;2023-02-23T06:39:24;8.70;99.90
16038;DHT22;8123;50.906;6.172;2023-02-23T06:41:50;8.80;99.90
16038;DHT22;8123;50.906;6.172;2023-02-23T06:44:15;8.80;99.90
16038;DHT22;8123;50.906;6.172;2023-02-23T06:46:41;9.00;99.90
16038;DHT22;8123;50.906;6.172;2023-02-23T06:49:06;8.80;99.90
16038;DHT22;8123;50.906;6.172;2023-02-23T06:51:32;8.70;99.90
16038;DHT22;8123;50.906;6.172;2023-02-23T06:53:58;8.90;99.90
16038;DHT22;8123;50.906;6.172;2023-02-23T06:56:24;8.70;99.90
16038;DHT22;8123;50.906;6.172;2023-02-23T06:58:49;8.80;99.90
16038;DHT22;8123;50.906;6.172;2023-02-23T07:01:15;8.80;99.90
16038;DHT22;8123;50.906;6.172;2023-02-23T07:03:42;8.70;99.90
16038;DHT22;8123;50.906;6.172;2023-02-23T07:06:08;8.70;99.90
16038;DHT22;8123;50.906;6.172;2023-02-23T07:08:34;8.70;99.90
16038;DHT22;8123;50.906;6.172;2023-02-23T07:11:12;8.70;99.90
16038;DHT22;8123;50.906;6.172;2023-02-23T07:13:38;8.80;99.90
16038;DHT22;8123;50.906;6.172;2023-02-23T07:16:05;9.00;99.90
16038;DHT22;8123;50.906;6.172;2023-02-23T07:18:31;8.70;99.90
16038;DHT22;8123;50.906;6.172;2023-02-23T07:20:57;8.70;99.90
16038;DHT22;8123;50.906;6.172;2023-02-23T07:23:23;8.80;99.90
16038;DHT22;8123;50.906;6.172;2023-02-23T07:25:54;8.80;99.90
16038;DHT22;8123;50.906;6.172;2023-02-23T07:28:21;8.80;99.90
16038;DHT22;8123;50.906;6.172;2023-02-23T07:30:47;8.80;99.90
16038;DHT22;8123;50.906;6.172;2023-02-23T07:33:14;8.80;99.90
16038;DHT22;8123;50.906;6.172;2023-02-23T07:35:41;8.80;99.90
16038;DHT22;8123;50.906;6.172;2023-02-23T07:38:07;8.80;99.90
16038;DHT22;8123;50.906;6.172;2023-02-23T07:40:33;8.80;99.90
16038;DHT22;8123;50.906;6.172;2023-02-23T07:42:59;8.80;99.90
16038;DHT22;8123;50.906;6.172;2023-02-23T07:45:25;9.10;99.90
16038;DHT22;8123;50.906;6.172;2023-02-23T07:47:50;8.80;99.90
16038;DHT22;8123;50.906;6.172;2023-02-23T07:50:16;9.20;99.90
16038;DHT22;8123;50.906;6.172;2023-02-23T07:52:42;8.90;99.90
16038;DHT22;8123;50.906;6.172;2023-02-23T07:55:09;8.80;99.90
16038;DHT22;8123;50.906;6.172;2023-02-23T07:57:35;8.80;99.90
16038;DHT22;8123;50.906;6.172;2023-02-23T08:00:01;8.80;99.90
16038;DHT22;8123;50.906;6.172;2023-02-23T08:02:28;8.80;99.90
16038;DHT22;8123;50.906;6.172;2023-02-23T08:04:54;8.90;99.90
16038;DHT22;8123;50.906;6.172;2023-02-23T08:07:21;9.20;99.90
16038;DHT22;8123;50.906;6.172;2023-02-23T08:09:47;9.10;99.90
16038;DHT22;8123;50.906;6.172;2023-02-23T08:12:13;9.10;99.90
16038;DHT22;8123;50.906;6.172;2023-02-23T08:14:40;8.90;99.90
16038;DHT22;8123;50.906;6.172;2023-02-23T08:17:06;9.20;99.90
16038;DHT22;8123;50.906;6.172;2023-02-23T08:19:32;9.00;99.90
16038;DHT22;8123;50.906;6.172;2023-02-23T08:21:59;8.80;99.90
16038;DHT22;8123;50.906;6.172;2023-02-23T08:24:25;8.80;99.90
16038;DHT22;8123;50.906;6.172;2023-02-23T08:26:51;8.90;99.90
16038;DHT22;8123;50.906;6.172;2023-02-23T08:29:17;8.90;99.90
16038;DHT22;8123;50.906;6.172;2023-02-23T08:31:42;9.00;99.90
16038;DHT22;8123;50.906;6.172;2023-02-23T08:34:09;9.10;99.90
16038;DHT22;8123;50.906;6.172;2023-02-23T08:36:34;8.80;99.90
16038;DHT22;8123;50.906;6.172;2023-02-23T08:39:00;8.70;99.90
16038;DHT22;8123;50.906;6.172;2023-02-23T08:41:26;9.10;99.90
16038;DHT22;8123;50.906;6.172;2023-02-23T08:43:52;8.80;99.90
16038;DHT22;8123;50.906;6.172;2023-02-23T08:46:18;8.70;99.90
16038;DHT22;8123;50.906;6.172;2023-02-23T08:48:45;8.70;99.90
16038;DHT22;8123;50.906;6.172;2023-02-23T08:51:11;8.70;99.90
16038;DHT22;8123;50.906;6.172;2023-02-23T08:53:39;8.70;99.90
16038;DHT22;8123;50.906;6.172;2023-02-23T08:56:06;9.00;99.90
16038;DHT22;8123;50.906;6.172;2023-02-23T08:58:32;8.70;99.90
16038;DHT22;8123;50.906;6.172;2023-02-23T09:00:58;8.70;99.90
16038;DHT22;8123;50.906;6.172;2023-02-23T09:03:25;8.80;99.90
16038;DHT22;8123;50.906;6.172;2023-02-23T09:05:53;8.60;99.90
16038;DHT22;8123;50.906;6.172;2023-02-23T09:08:20;8.60;99.90
16038;DHT22;8123;50.906;6.172;2023-02-23T09:10:46;8.70;99.90
16038;DHT22;8123;50.906;6.172;2023-02-23T09:13:12;8.50;99.90
16038;DHT22;8123;50.906;6.172;2023-02-23T09:15:39;8.60;99.90
16038;DHT22;8123;50.906;6.172;2023-02-23T09:18:06;8.60;99.90
16038;DHT22;8123;50.906;6.172;2023-02-23T09:20:32;8.60;99.90
16038;DHT22;8123;50.906;6.172;2023-02-23T09:22:58;8.60;99.90
16038;DHT22;8123;50.906;6.172;2023-02-23T09:25:24;8.60;99.90
16038;DHT22;8123;50.906;6.172;2023-02-23T09:27:51;8.60;99.90
16038;DHT22;8123;50.906;6.172;2023-02-23T09:30:19;8.50;99.90
16038;DHT22;8123;50.906;6.172;2023-02-23T09:32:49;8.80;99.90
16038;DHT22;8123;50.906;6.172;2023-02-23T09:35:16;8.60;99.90
16038;DHT22;8123;50.906;6.172;2023-02-23T09:37:54;8.80;99.90
16038;DHT22;8123;50.906;6.172;2023-02-23T09:40:26;9.00;99.90
16038;DHT22;8123;50.906;6.172;2023-02-23T09:43:29;8.70;99.90
16038;DHT22;8123;50.906;6.172;2023-02-23T09:46:21;8.60;99.90
16038;DHT22;8123;50.906;6.172;2023-02-23T09:48:55;8.60;99.90
16038;DHT22;8123;50.906;6.172;2023-02-23T09:51:22;8.60;99.90
16038;DHT22;8123;50.906;6.172;2023-02-23T09:53:52;8.60;99.90
16038;DHT22;8123;50.906;6.172;2023-02-23T09:56:36;8.60;99.90
16038;DHT22;8123;50.906;6.172;2023-02-23T09:59:10;8.60;99.90
16038;DHT22;8123;50.906;6.172;2023-02-23T10:19:06;8.60;99.90
16038;DHT22;8123;50.906;6.172;2023-02-23T10:21:39;8.60;99.90
16038;DHT22;8123;50.906;6.172;2023-02-23T10:24:13;8.60;99.90
16038;DHT22;8123;50.906;6.172;2023-02-23T10:26:55;8.60;99.90
16038;DHT22;8123;50.906;6.172;2023-02-23T10:29:37;8.60;99.90
16038;DHT22;8123;50.906;6.172;2023-02-23T10:32:17;8.60;99.90
16038;DHT22;8123;50.906;6.172;2023-02-23T10:34:46;8.40;99.90
16038;DHT22;8123;50.906;6.172;2023-02-23T10:37:18;8.50;99.90
16038;DHT22;8123;50.906;6.172;2023-02-23T10:39:44;8.50;99.90
16038;DHT22;8123;50.906;6.172;2023-02-23T10:42:19;8.50;99.90
16038;DHT22;8123;50.906;6.172;2023-02-23T10:44:45;8.80;99.90
16038;DHT22;8123;50.906;6.172;2023-02-23T10:47:24;8.50;99.90
16038;DHT22;8123;50.906;6.172;2023-02-23T10:49:53;8.70;99.90
16038;DHT22;8123;50.906;6.172;2023-02-23T10:52:25;8.60;99.90
16038;DHT22;8123;50.906;6.172;2023-02-23T10:54:51;8.60;99.90
16038;DHT22;8123;50.906;6.172;2023-02-23T10:57:21;8.60;99.90
16038;DHT22;8123;50.906;6.172;2023-02-23T11:02:32;8.50;99.90
16038;DHT22;8123;50.906;6.172;2023-02-23T11:04:59;8.40;99.90
16038;DHT22;8123;50.906;6.172;2023-02-23T11:07:30;8.70;99.90
16038;DHT22;8123;50.906;6.172;2023-02-23T11:09:57;8.60;99.90
16038;DHT22;8123;50.906;6.172;2023-02-23T11:12:46;8.50;99.90
16038;DHT22;8123;50.906;6.172;2023-02-23T11:17:58;8.50;99.90
16038;DHT22;8123;50.906;6.172;2023-02-23T11:20:38;9.00;99.90
16038;DHT22;8123;50.906;6.172;2023-02-23T11:23:34;8.60;99.90
16038;DHT22;8123;50.906;6.172;2023-02-23T11:26:16;8.60;99.90
16038;DHT22;8123;50.906;6.172;2023-02-23T11:28:51;8.60;99.90
16038;DHT22;8123;50.906;6.172;2023-02-23T11:31:22;8.70;99.90
16038;DHT22;8123;50.906;6.172;2023-02-23T11:33:53;8.70;99.90
16038;DHT22;8123;50.906;6.172;2023-02-23T11:39:19;8.80;99.90
16038;DHT22;8123;50.906;6.172;2023-02-23T11:42:05;8.80;99.90
16038;DHT22;8123;50.906;6.172;2023-02-23T11:44:37;8.90;99.90
16038;DHT22;8123;50.906;6.172;2023-02-23T11:47:02;8.90;99.90
16038;DHT22;8123;50.906;6.172;2023-02-23T11:49:31;8.90;99.90
16038;DHT22;8123;50.906;6.172;2023-02-23T11:52:00;8.90;99.90
16038;DHT22;8123;50.906;6.172;2023-02-23T11:54:33;8.80;99.90
16038;DHT22;8123;50.906;6.172;2023-02-23T11:56:59;8.80;99.90
16038;DHT22;8123;50.906;6.172;2023-02-23T11:59:36;9.00;99.90
16038;DHT22;8123;50.906;6.172;2023-02-23T12:04:44;8.80;99.90
16038;DHT22;8123;50.906;6.172;2023-02-23T12:10:14;8.80;99.90
16038;DHT22;8123;50.906;6.172;2023-02-23T12:12:53;9.00;99.90
16038;DHT22;8123;50.906;6.172;2023-02-23T12:17:59;8.70;99.90
16038;DHT22;8123;50.906;6.172;2023-02-23T12:20:36;8.80;99.90
16038;DHT22;8123;50.906;6.172;2023-02-23T12:23:17;8.80;99.90
16038;DHT22;8123;50.906;6.172;2023-02-23T12:25:54;8.80;99.90
16038;DHT22;8123;50.906;6.172;2023-02-23T12:28:53;8.80;99.90
16038;DHT22;8123;50.906;6.172;2023-02-23T12:31:51;8.80;99.90
16038;DHT22;8123;50.906;6.172;2023-02-23T12:34:31;8.90;99.90
16038;DHT22;8123;50.906;6.172;2023-02-23T12:39:51;9.10;99.90
16038;DHT22;8123;50.906;6.172;2023-02-23T12:42:27;9.30;99.90
16038;DHT22;8123;50.906;6.172;2023-02-23T12:44:58;9.40;99.90
16038;DHT22;8123;50.906;6.172;2023-02-23T12:47:34;9.40;99.90
16038;DHT22;8123;50.906;6.172;2023-02-23T12:50:05;9.50;99.90
16038;DHT22;8123;50.906;6.172;2023-02-23T12:52:42;9.60;99.90
16038;DHT22;8123;50.906;6.172;2023-02-23T12:55:12;9.60;99.90
16038;DHT22;8123;50.906;6.172;2023-02-23T12:57:52;9.70;99.90
16038;DHT22;8123;50.906;6.172;2023-02-23T13:00:43;9.70;99.90
16038;DHT22;8123;50.906;6.172;2023-02-23T13:13:51;9.60;99.90
16038;DHT22;8123;50.906;6.172;2023-02-23T13:16:37;9.80;99.90
16038;DHT22;8123;50.906;6.172;2023-02-23T13:19:28;9.80;99.90
16038;DHT22;8123;50.906;6.172;2023-02-23T13:22:28;9.70;99.90
16038;DHT22;8123;50.906;6.172;2023-02-23T13:24:54;9.70;99.90
16038;DHT22;8123;50.906;6.172;2023-02-23T13:29:55;9.70;99.90
16038;DHT22;8123;50.906;6.172;2023-02-23T13:32:30;9.90;99.90
16038;DHT22;8123;50.906;6.172;2023-02-23T13:35:05;10.10;99.90
16038;DHT22;8123;50.906;6.172;2023-02-23T13:40:31;9.70;99.90
16038;DHT22;8123;50.906;6.172;2023-02-23T13:56:46;10.30;99.90
16038;DHT22;8123;50.906;6.172;2023-02-23T13:59:21;10.40;99.90
16038;DHT22;8123;50.906;6.172;2023-02-23T14:01:52;10.30;99.90
16038;DHT22;8123;50.906;6.172;2023-02-23T14:04:35;10.50;99.90
16038;DHT22;8123;50.906;6.172;2023-02-23T14:07:17;10.20;99.90
16038;DHT22;8123;50.906;6.172;2023-02-23T14:09:48;10.50;99.90
16038;DHT22;8123;50.906;6.172;2023-02-23T14:12:24;10.10;99.90
16038;DHT22;8123;50.906;6.172;2023-02-23T14:14:51;10.00;99.90
16038;DHT22;8123;50.906;6.172;2023-02-23T14:22:21;10.00;99.90
16038;DHT22;8123;50.906;6.172;2023-02-23T14:27:57;9.80;99.90
16038;DHT22;8123;50.906;6.172;2023-02-23T14:30:30;9.70;99.90
16038;DHT22;8123;50.906;6.172;2023-02-23T14:41:44;9.70;99.90
16038;DHT22;8123;50.906;6.172;2023-02-23T14:47:11;9.70;99.90
16038;DHT22;8123;50.906;6.172;2023-02-23T14:49:42;9.70;99.90
16038;DHT22;8123;50.906;6.172;2023-02-23T14:52:24;9.60;99.90
16038;DHT22;8123;50.906;6.172;2023-02-23T14:54:52;9.70;99.90
16038;DHT22;8123;50.906;6.172;2023-02-23T14:57:28;10.00;99.90
16038;DHT22;8123;50.906;6.172;2023-02-23T15:00:02;10.00;99.90
16038;DHT22;8123;50.906;6.172;2023-02-23T15:02:31;9.60;99.90
16038;DHT22;8123;50.906;6.172;2023-02-23T15:04:56;9.60;99.90
16038;DHT22;8123;50.906;6.172;2023-02-23T15:07:31;9.50;99.90
16038;DHT22;8123;50.906;6.172;2023-02-23T15:09:58;9.90;99.90
16038;DHT22;8123;50.906;6.172;2023-02-23T15:12:33;9.50;99.90
16038;DHT22;8123;50.906;6.172;2023-02-23T15:15:01;9.50;99.90
16038;DHT22;8123;50.906;6.172;2023-02-23T15:17:30;9.40;99.90
16038;DHT22;8123;50.906;6.172;2023-02-23T15:20:02;9.40;99.90
16038;DHT22;8123;50.906;6.172;2023-02-23T15:22:34;9.70;99.90
16038;DHT22;8123;50.906;6.172;2023-02-23T15:25:31;9.40;99.90
16038;DHT22;8123;50.906;6.172;2023-02-23T15:27:53;9.30;99.90
16038;DHT22;8123;50.906;6.172;2023-02-23T15:30:29;9.30;99.90
16038;DHT22;8123;50.906;6.172;2023-02-23T15:33:09;9.30;99.90
16038;DHT22;8123;50.906;6.172;2023-02-23T15:36:04;9.30;99.90
16038;DHT22;8123;50.906;6.172;2023-02-23T15:38:28;9.30;99.90
16038;DHT22;8123;50.906;6.172;2023-02-23T15:41:06;9.30;99.90
16038;DHT22;8123;50.906;6.172;2023-02-23T15:43:33;9.20;99.90
16038;DHT22;8123;50.906;6.172;2023-02-23T15:46:02;9.20;99.90
16038;DHT22;8123;50.906;6.172;2023-02-23T15:48:49;9.20;99.90
16038;DHT22;8123;50.906;6.172;2023-02-23T15:51:43;9.20;99.90
16038;DHT22;8123;50.906;6.172;2023-02-23T15:54:23;9.10;99.90
16038;DHT22;8123;50.906;6.172;2023-02-23T15:56:56;9.10;99.90
16038;DHT22;8123;50.906;6.172;2023-02-23T15:59:28;9.10;99.90
16038;DHT22;8123;50.906;6.172;2023-02-23T16:01:58;9.10;99.90
16038;DHT22;8123;50.906;6.172;2023-02-23T16:04:30;9.00;99.90
16038;DHT22;8123;50.906;6.172;2023-02-23T16:07:17;9.10;99.90
16038;DHT22;8123;50.906;6.172;2023-02-23T16:09:55;9.10;99.90
16038;DHT22;8123;50.906;6.172;2023-02-23T16:12:33;9.10;99.90
16038;DHT22;8123;50.906;6.172;2023-02-23T16:15:12;9.10;99.90
16038;DHT22;8123;50.906;6.172;2023-02-23T16:17:46;9.10;99.90
16038;DHT22;8123;50.906;6.172;2023-02-23T16:20:39;9.10;99.90
16038;DHT22;8123;50.906;6.172;2023-02-23T16:23:30;9.10;99.90
16038;DHT22;8123;50.906;6.172;2023-02-23T16:26:00;9.10;99.90
16038;DHT22;8123;50.906;6.172;2023-02-23T16:28:32;9.00;99.90
16038;DHT22;8123;50.906;6.172;2023-02-23T16:31:05;9.00;99.90
16038;DHT22;8123;50.906;6.172;2023-02-23T16:33:44;9.10;99.90
16038;DHT22;8123;50.906;6.172;2023-02-23T16:36:21;9.00;99.90
16038;DHT22;8123;50.906;6.172;2023-02-23T16:38:57;9.00;99.90
16038;DHT22;8123;50.906;6.172;2023-02-23T16:41:33;9.00;99.90
16038;DHT22;8123;50.906;6.172;2023-02-23T16:44:01;9.00;99.90
16038;DHT22;8123;50.906;6.172;2023-02-23T16:46:45;9.00;99.90
16038;DHT22;8123;50.906;6.172;2023-02-23T16:49:18;9.00;99.90
16038;DHT22;8123;50.906;6.172;2023-02-23T16:51:44;9.40;99.90
16038;DHT22;8123;50.906;6.172;2023-02-23T16:54:10;9.10;99.90
16038;DHT22;8123;50.906;6.172;2023-02-23T16:56:37;8.70;99.90
16038;DHT22;8123;50.906;6.172;2023-02-23T16:59:04;8.90;99.90
16038;DHT22;8123;50.906;6.172;2023-02-23T17:01:30;8.90;99.90
16038;DHT22;8123;50.906;6.172;2023-02-23T17:03:55;9.00;99.90
16038;DHT22;8123;50.906;6.172;2023-02-23T17:06:23;9.00;99.90
16038;DHT22;8123;50.906;6.172;2023-02-23T17:08:49;8.90;99.90
16038;DHT22;8123;50.906;6.172;2023-02-23T17:11:14;9.20;99.90
16038;DHT22;8123;50.906;6.172;2023-02-23T17:13:40;8.90;99.90
16038;DHT22;8123;50.906;6.172;2023-02-23T17:16:09;8.90;99.90
16038;DHT22;8123;50.906;6.172;2023-02-23T17:18:37;8.90;99.90
16038;DHT22;8123;50.906;6.172;2023-02-23T17:21:05;9.20;99.90
16038;DHT22;8123;50.906;6.172;2023-02-23T17:23:38;9.00;99.90
16038;DHT22;8123;50.906;6.172;2023-02-23T17:26:08;9.10;99.90
16038;DHT22;8123;50.906;6.172;2023-02-23T17:28:34;8.90;99.90
16038;DHT22;8123;50.906;6.172;2023-02-23T17:31:01;8.90;99.90
16038;DHT22;8123;50.906;6.172;2023-02-23T17:33:28;9.20;99.90
16038;DHT22;8123;50.906;6.172;2023-02-23T17:36:00;8.90;99.90
16038;DHT22;8123;50.906;6.172;2023-02-23T17:38:26;8.90;99.90
16038;DHT22;8123;50.906;6.172;2023-02-23T17:41:06;8.90;99.90
16038;DHT22;8123;50.906;6.172;2023-02-23T17:43:33;9.40;99.90
16038;DHT22;8123;50.906;6.172;2023-02-23T17:45:59;8.90;99.90
16038;DHT22;8123;50.906;6.172;2023-02-23T17:48:26;8.80;99.90
16038;DHT22;8123;50.906;6.172;2023-02-23T17:51:00;8.80;99.90
16038;DHT22;8123;50.906;6.172;2023-02-23T17:53:28;8.80;99.90
16038;DHT22;8123;50.906;6.172;2023-02-23T17:55:54;9.00;99.90
16038;DHT22;8123;50.906;6.172;2023-02-23T17:58:20;8.70;99.90
16038;DHT22;8123;50.906;6.172;2023-02-23T18:00:46;8.70;99.90
16038;DHT22;8123;50.906;6.172;2023-02-23T18:03:14;9.10;99.90
16038;DHT22;8123;50.906;6.172;2023-02-23T18:05:40;9.00;99.90
16038;DHT22;8123;50.906;6.172;2023-02-23T18:08:06;8.70;99.90
16038;DHT22;8123;50.906;6.172;2023-02-23T18:10:31;8.70;99.90
16038;DHT22;8123;50.906;6.172;2023-02-23T18:13:02;8.70;99.90
16038;DHT22;8123;50.906;6.172;2023-02-23T18:15:28;8.70;99.90
16038;DHT22;8123;50.906;6.172;2023-02-23T18:17:55;8.70;99.90
16038;DHT22;8123;50.906;6.172;2023-02-23T18:20:22;8.90;99.90
16038;DHT22;8123;50.906;6.172;2023-02-23T18:22:47;8.80;99.90
16038;DHT22;8123;50.906;6.172;2023-02-23T18:25:25;8.60;99.90